createdAt,value
2022-11-14T00:00:56.835Z,11.27
2022-11-14T00:03:42.088Z,11.63
2022-11-14T00:06:27.453Z,10.60
2022-11-14T00:09:12.819Z,11.23
2022-11-14T00:11:58.350Z,11.25
2022-11-14T00:14:43.959Z,14.85
2022-11-14T00:17:29.520Z,9.02
2022-11-14T00:20:15.097Z,12.15
2022-11-14T00:23:00.490Z,10.00
2022-11-14T00:25:46.625Z,7.63
2022-11-14T00:28:32.318Z,10.57
2022-11-14T00:31:17.911Z,10.38
2022-11-14T00:34:03.801Z,7.68
2022-11-14T00:36:48.827Z,7.53
2022-11-14T00:39:34.268Z,8.20
2022-11-14T00:42:19.713Z,9.48
2022-11-14T00:45:05.558Z,6.97
2022-11-14T00:47:50.927Z,8.07
2022-11-14T00:50:37.912Z,10.55
2022-11-14T00:53:23.581Z,11.02
2022-11-14T00:56:09.059Z,7.97
2022-11-14T00:58:54.556Z,10.00
2022-11-14T01:01:40.138Z,8.80
2022-11-14T01:04:25.512Z,10.77
2022-11-14T01:07:11.070Z,8.32
2022-11-14T01:09:56.670Z,6.70
2022-11-14T01:12:42.224Z,11.95
2022-11-14T01:15:27.683Z,6.22
2022-11-14T01:18:17.770Z,8.32
2022-11-14T01:21:09.073Z,8.30
2022-11-14T01:23:54.433Z,8.90
2022-11-14T01:26:39.914Z,8.15
2022-11-14T01:29:25.317Z,6.65
2022-11-14T01:32:10.742Z,9.50
2022-11-14T01:34:56.051Z,8.52
2022-11-14T01:37:41.431Z,8.98
2022-11-14T01:40:27.525Z,8.60
2022-11-14T01:43:18.972Z,10.38
2022-11-14T01:46:07.586Z,9.43
2022-11-14T01:52:03.248Z,13.38
2022-11-14T01:54:52.360Z,11.00
2022-11-14T01:57:42.237Z,9.05
2022-11-14T02:00:27.607Z,8.48
2022-11-14T02:03:15.030Z,8.00
2022-11-14T02:06:01.856Z,9.27
2022-11-14T02:08:48.583Z,9.02
2022-11-14T02:11:38.396Z,7.25
2022-11-14T02:14:23.509Z,7.82
2022-11-14T02:20:13.933Z,7.65
2022-11-14T02:22:59.335Z,9.40
2022-11-14T02:25:44.984Z,9.90
2022-11-14T02:28:30.580Z,7.13
2022-11-14T02:31:16.860Z,8.13
2022-11-14T02:34:01.963Z,7.88
2022-11-14T02:36:47.311Z,6.47
2022-11-14T02:39:32.871Z,6.78
2022-11-14T02:42:18.140Z,7.07
2022-11-14T02:45:04.060Z,4.53
2022-11-14T02:47:49.526Z,6.15
2022-11-14T02:50:34.863Z,7.68
2022-11-14T02:53:20.465Z,8.65
2022-11-14T02:56:06.012Z,6.32
2022-11-14T02:58:51.720Z,6.72
2022-11-14T03:01:37.354Z,6.20
2022-11-14T03:04:22.479Z,8.55
2022-11-14T03:10:09.475Z,9.73
2022-11-14T03:13:22.428Z,8.50
2022-11-14T03:16:10.760Z,7.05
2022-11-14T03:18:56.214Z,8.15
2022-11-14T03:21:41.320Z,7.95
2022-11-14T03:24:26.830Z,7.22
2022-11-14T03:27:13.218Z,9.13
2022-11-14T03:29:58.263Z,7.80
2022-11-14T03:32:43.667Z,5.93
2022-11-14T03:35:29.071Z,6.57
2022-11-14T03:38:14.554Z,6.50
2022-11-14T03:41:01.100Z,8.35
2022-11-14T03:43:46.307Z,7.72
2022-11-14T03:46:31.680Z,5.57
2022-11-14T03:49:17.025Z,7.45
2022-11-14T03:52:02.486Z,7.43
2022-11-14T03:54:48.159Z,5.60
2022-11-14T03:57:33.679Z,6.75
2022-11-14T04:00:19.552Z,6.85
2022-11-14T04:03:05.111Z,7.00
2022-11-14T04:05:51.228Z,6.50
2022-11-14T04:08:36.695Z,4.95
2022-11-14T04:11:22.218Z,6.53
2022-11-14T04:14:07.817Z,4.18
2022-11-14T04:16:53.181Z,3.65
2022-11-14T04:19:38.618Z,5.65
2022-11-14T04:22:23.985Z,7.35
2022-11-14T04:25:09.866Z,4.75
2022-11-14T04:27:55.255Z,7.07
2022-11-14T04:30:41.185Z,3.80
2022-11-14T04:33:27.086Z,4.50
2022-11-14T04:36:12.444Z,7.47
2022-11-14T04:38:57.708Z,6.60
2022-11-14T04:41:43.473Z,10.10
2022-11-14T04:44:28.623Z,9.82
2022-11-14T04:47:13.980Z,6.82
2022-11-14T04:49:59.499Z,12.20
2022-11-14T04:52:44.900Z,9.02
2022-11-14T04:55:30.351Z,8.73
2022-11-14T04:58:15.685Z,10.00
2022-11-14T05:01:08.089Z,8.30
2022-11-14T05:03:53.224Z,10.95
2022-11-14T05:06:38.572Z,5.53
2022-11-14T05:09:23.916Z,6.55
2022-11-14T05:12:09.347Z,7.60
2022-11-14T05:14:54.653Z,6.63
2022-11-14T05:17:40.238Z,7.88
2022-11-14T05:20:25.491Z,11.70
2022-11-14T05:23:21.202Z,9.60
2022-11-14T05:26:12.552Z,17.60
2022-11-14T05:28:57.691Z,12.93
2022-11-14T05:31:42.956Z,20.63
2022-11-14T05:34:28.612Z,18.08
2022-11-14T05:37:13.885Z,13.18
2022-11-14T05:39:59.339Z,14.80
2022-11-14T05:42:44.995Z,16.90
2022-11-14T05:45:30.838Z,15.52
2022-11-14T05:48:15.992Z,18.70
2022-11-14T05:51:03.784Z,23.33
2022-11-14T05:53:49.310Z,14.50
2022-11-14T05:56:34.751Z,16.63
2022-11-14T05:59:19.996Z,20.13
2022-11-14T06:02:05.299Z,19.30
2022-11-14T06:04:50.659Z,20.13
2022-11-14T06:07:37.067Z,16.27
2022-11-14T06:10:22.764Z,13.68
2022-11-14T06:13:08.059Z,15.43
2022-11-14T06:15:53.509Z,26.48
2022-11-14T06:18:39.792Z,18.35
2022-11-14T06:21:26.545Z,15.85
2022-11-14T06:24:12.057Z,16.98
2022-11-14T06:26:57.424Z,13.32
2022-11-14T06:29:42.969Z,14.75
2022-11-14T06:32:28.408Z,10.90
2022-11-14T06:35:13.901Z,12.65
2022-11-14T06:38:02.218Z,11.07
2022-11-14T06:40:47.670Z,8.27
2022-11-14T06:43:34.726Z,24.48
2022-11-14T06:46:21.528Z,28.20
2022-11-14T06:49:06.929Z,16.17
2022-11-14T06:51:52.377Z,10.57
2022-11-14T06:54:37.751Z,10.32
2022-11-14T06:57:23.093Z,10.27
2022-11-14T07:00:08.931Z,10.38
2022-11-14T07:02:54.551Z,13.25
2022-11-14T07:05:39.955Z,16.58
2022-11-14T07:08:25.410Z,16.60
2022-11-14T07:11:26.479Z,16.63
2022-11-14T07:14:11.903Z,14.50
2022-11-14T07:16:58.148Z,21.55
2022-11-14T07:19:43.320Z,20.52
2022-11-14T07:22:28.785Z,19.08
2022-11-14T07:25:14.293Z,18.92
2022-11-14T07:27:59.527Z,13.20
2022-11-14T07:30:45.021Z,13.73
2022-11-14T07:33:31.518Z,13.88
2022-11-14T07:36:17.225Z,17.65
2022-11-14T07:39:02.468Z,15.23
2022-11-14T07:41:47.774Z,14.40
2022-11-14T07:44:33.212Z,14.70
2022-11-14T07:47:18.855Z,14.75
2022-11-14T07:50:04.397Z,14.35
2022-11-14T07:52:54.299Z,20.80
2022-11-14T07:55:39.927Z,23.45
2022-11-14T07:58:25.328Z,28.30
2022-11-14T08:01:12.520Z,24.17
2022-11-14T08:03:57.742Z,24.80
2022-11-14T08:06:43.177Z,16.83
2022-11-14T08:09:28.581Z,19.50
2022-11-14T08:12:13.872Z,23.52
2022-11-14T08:14:59.406Z,22.48
2022-11-14T08:17:44.768Z,12.50
2022-11-14T08:20:30.645Z,16.77
2022-11-14T08:23:16.298Z,18.45
2022-11-14T08:26:01.792Z,20.00
2022-11-14T08:28:47.336Z,16.08
2022-11-14T08:31:32.687Z,21.42
2022-11-14T08:34:18.063Z,15.88
2022-11-14T08:37:03.646Z,16.15
2022-11-14T08:39:48.968Z,14.85
2022-11-14T08:42:34.507Z,16.38
2022-11-14T08:45:19.756Z,15.65
2022-11-14T08:48:05.824Z,16.17
2022-11-14T08:50:51.182Z,14.52
2022-11-14T08:53:36.574Z,12.35
2022-11-14T08:56:22.213Z,20.17
2022-11-14T08:59:07.466Z,12.85
2022-11-14T09:01:52.853Z,14.43
2022-11-14T09:04:38.460Z,15.27
2022-11-14T09:07:23.865Z,10.60
2022-11-14T09:10:02.623Z,12.48
2022-11-14T09:12:47.722Z,10.00
2022-11-14T09:15:34.007Z,12.73
2022-11-14T09:18:19.460Z,13.45
2022-11-14T09:21:07.473Z,14.68
2022-11-14T09:23:56.159Z,10.82
2022-11-14T09:26:44.076Z,14.55
2022-11-14T09:29:29.451Z,11.80
2022-11-14T09:32:14.979Z,14.07
2022-11-14T09:35:00.339Z,11.52
2022-11-14T09:37:45.888Z,11.75
2022-11-14T09:40:44.703Z,14.50
2022-11-14T09:43:50.604Z,15.15
2022-11-14T09:46:44.878Z,9.45
2022-11-14T09:49:40.977Z,10.68
2022-11-14T09:52:26.184Z,14.77
2022-11-14T09:55:19.652Z,12.70
2022-11-14T09:58:08.431Z,9.80
2022-11-14T10:01:09.355Z,14.50
2022-11-14T10:04:09.718Z,7.28
2022-11-14T10:07:13.481Z,8.02
2022-11-14T10:10:40.815Z,4.53
2022-11-14T10:13:39.328Z,6.45
2022-11-14T10:16:31.205Z,3.83
2022-11-14T10:19:41.434Z,4.53
2022-11-14T10:22:58.646Z,5.07
2022-11-14T10:26:10.142Z,6.30
2022-11-14T10:29:16.864Z,5.10
2022-11-14T10:32:12.304Z,4.55
2022-11-14T10:35:21.104Z,5.25
2022-11-14T10:38:38.726Z,4.75
2022-11-14T10:41:55.184Z,8.38
2022-11-14T10:44:42.176Z,4.95
2022-11-14T10:47:35.239Z,6.90
2022-11-14T10:50:25.018Z,4.63
2022-11-14T10:53:51.440Z,5.38
2022-11-14T10:56:53.415Z,4.80
2022-11-14T10:59:38.587Z,12.65
2022-11-14T11:02:23.823Z,3.80
2022-11-14T11:05:16.530Z,3.45
2022-11-14T11:08:41.922Z,2.42
2022-11-14T11:11:32.018Z,5.38
2022-11-14T11:14:19.491Z,3.10
2022-11-14T11:17:11.587Z,3.20
2022-11-14T11:20:37.214Z,5.03
2022-11-14T11:23:26.180Z,4.18
2022-11-14T11:26:31.892Z,3.20
2022-11-14T11:29:19.492Z,4.22
2022-11-14T11:32:05.251Z,4.07
2022-11-14T11:34:51.895Z,5.90
2022-11-14T11:37:54.628Z,4.65
2022-11-14T11:40:41.440Z,13.95
2022-11-14T11:43:41.383Z,8.70
2022-11-14T11:46:47.837Z,8.13
2022-11-14T11:49:33.283Z,11.30
2022-11-14T11:52:44.047Z,15.43
2022-11-14T11:55:33.712Z,5.72
2022-11-14T11:58:28.058Z,5.45
2022-11-14T12:01:14.366Z,5.72
2022-11-14T12:04:01.670Z,5.90
2022-11-14T12:07:04.535Z,7.25
2022-11-14T12:10:09.842Z,7.03
2022-11-14T12:13:14.664Z,5.38
2022-11-14T12:16:41.285Z,15.85
2022-11-14T12:19:38.105Z,5.78
2022-11-14T12:22:35.532Z,7.50
2022-11-14T12:25:35.395Z,7.88
2022-11-14T12:28:59.361Z,4.18
2022-11-14T12:31:46.631Z,3.95
2022-11-14T12:34:33.831Z,4.10
2022-11-14T12:37:29.404Z,5.50
2022-11-14T12:40:39.664Z,10.68
2022-11-14T12:43:38.525Z,4.63
2022-11-14T12:46:23.799Z,8.98
2022-11-14T12:49:49.541Z,9.07
2022-11-14T12:52:41.123Z,6.15
2022-11-14T12:55:26.495Z,5.47
2022-11-14T12:58:20.224Z,6.28
2022-11-14T13:01:28.234Z,19.35
2022-11-14T13:04:18.365Z,13.05
2022-11-14T13:07:33.926Z,9.45
2022-11-14T13:10:39.810Z,63.58
2022-11-14T13:13:43.433Z,13.05
2022-11-14T13:16:51.379Z,8.48
2022-11-14T13:20:04.916Z,9.50
2022-11-14T13:22:50.412Z,9.40
2022-11-14T13:25:35.865Z,11.07
2022-11-14T13:28:49.828Z,10.07
2022-11-14T13:31:45.820Z,10.50
2022-11-14T13:34:36.659Z,9.20
2022-11-14T13:37:43.958Z,11.70
2022-11-14T13:40:40.777Z,12.15
2022-11-14T13:44:04.549Z,10.95
2022-11-14T13:47:18.187Z,16.58
2022-11-14T13:50:10.969Z,7.70
2022-11-14T13:52:56.849Z,9.90
2022-11-14T13:55:56.296Z,23.05
2022-11-14T13:58:50.702Z,12.18
2022-11-14T14:02:08.049Z,9.38
2022-11-14T14:05:14.720Z,9.88
2022-11-14T14:08:15.492Z,9.70
2022-11-14T14:11:19.315Z,8.73
2022-11-14T14:14:23.286Z,7.63
2022-11-14T14:17:45.309Z,6.95
2022-11-14T14:20:44.467Z,8.65
2022-11-14T14:23:55.857Z,9.05
2022-11-14T14:27:02.512Z,12.55
2022-11-14T14:29:55.458Z,8.15
2022-11-14T14:32:40.606Z,8.90
2022-11-14T14:35:29.247Z,5.38
2022-11-14T14:38:26.292Z,6.15
2022-11-14T14:41:14.329Z,5.72
2022-11-14T14:44:00.127Z,4.90
2022-11-14T14:46:45.289Z,6.10
2022-11-14T14:49:35.336Z,4.10
2022-11-14T14:52:36.825Z,4.65
2022-11-14T14:55:40.529Z,10.77
2022-11-14T14:58:29.727Z,8.95
2022-11-14T15:01:21.239Z,7.57
2022-11-14T15:04:08.680Z,7.30
2022-11-14T15:06:57.391Z,5.43
2022-11-14T15:14:24.743Z,6.38
2022-11-14T15:17:10.850Z,7.40
2022-11-14T15:19:56.283Z,10.98
2022-11-14T15:22:41.620Z,9.13
2022-11-14T15:25:27.363Z,6.63
2022-11-14T15:28:16.471Z,10.10
2022-11-14T15:31:04.022Z,8.45
2022-11-14T15:34:30.824Z,12.27
2022-11-14T15:37:18.798Z,23.27
2022-11-14T15:40:21.380Z,17.92
2022-11-14T15:43:48.076Z,13.20
2022-11-14T15:46:33.530Z,8.32
2022-11-14T15:49:25.380Z,9.48
2022-11-14T15:52:28.349Z,7.70
2022-11-14T15:55:20.483Z,8.90
2022-11-14T15:58:28.891Z,8.90
2022-11-14T16:01:22.856Z,8.60
2022-11-14T16:04:17.249Z,10.43
2022-11-14T16:07:03.382Z,12.75
2022-11-14T16:09:48.731Z,9.13
2022-11-14T16:12:34.185Z,11.70
2022-11-14T16:15:20.415Z,16.00
2022-11-14T16:18:06.416Z,62.22
2022-11-14T16:20:51.895Z,21.27
2022-11-14T16:23:37.125Z,14.23
2022-11-14T16:26:22.486Z,26.58
2022-11-14T16:29:08.021Z,26.05
2022-11-14T16:31:55.096Z,22.05
2022-11-14T16:34:40.262Z,15.35
2022-11-14T16:37:25.532Z,10.50
2022-11-14T16:40:27.412Z,10.35
2022-11-14T16:43:14.421Z,12.55
2022-11-14T16:46:04.576Z,9.70
2022-11-14T16:48:49.872Z,15.73
2022-11-14T16:51:51.114Z,9.73
2022-11-14T16:54:36.986Z,10.85
2022-11-14T16:57:23.078Z,5.18
2022-11-14T17:00:12.144Z,8.98
2022-11-14T17:02:57.162Z,9.23
2022-11-14T17:05:48.278Z,12.02
2022-11-14T17:08:33.380Z,7.00
2022-11-14T17:11:18.660Z,8.40
2022-11-14T17:14:04.139Z,7.43
2022-11-14T17:16:49.667Z,8.95
2022-11-14T17:19:34.968Z,7.65
2022-11-14T17:22:20.348Z,8.43
2022-11-14T17:25:05.904Z,10.75
2022-11-14T17:27:51.416Z,12.02
2022-11-14T17:30:43.709Z,11.05
2022-11-14T17:33:29.550Z,9.77
2022-11-14T17:36:14.950Z,7.28
2022-11-14T17:39:00.529Z,8.13
2022-11-14T17:41:46.081Z,7.90
2022-11-14T17:44:31.487Z,12.65
2022-11-14T17:47:17.067Z,15.68
2022-11-14T17:50:02.655Z,15.18
2022-11-14T17:52:47.880Z,9.77
2022-11-14T17:55:33.272Z,10.98
2022-11-14T17:58:18.745Z,14.18
2022-11-14T18:01:13.583Z,12.25
2022-11-14T18:04:04.522Z,10.60
2022-11-14T18:06:51.501Z,12.32
2022-11-14T18:09:37.125Z,16.90
2022-11-14T18:12:22.627Z,12.25
2022-11-14T18:15:08.550Z,10.93
2022-11-14T18:17:53.861Z,8.70
2022-11-14T18:20:39.272Z,9.40
2022-11-14T18:23:25.433Z,9.20
2022-11-14T18:26:16.257Z,7.93
2022-11-14T18:29:02.267Z,10.93
2022-11-14T18:31:48.229Z,14.10
2022-11-14T18:34:36.713Z,11.98
2022-11-14T18:40:13.394Z,8.77
2022-11-14T18:43:01.179Z,9.57
2022-11-14T18:45:46.482Z,7.05
2022-11-14T18:48:32.209Z,15.43
2022-11-14T18:51:20.723Z,20.98
2022-11-14T18:54:05.996Z,13.63
2022-11-14T18:56:51.685Z,7.45
2022-11-14T18:59:36.865Z,10.43
2022-11-14T19:02:22.528Z,7.35
2022-11-14T19:05:08.212Z,8.23
2022-11-14T19:07:53.576Z,6.05
2022-11-14T19:10:39.115Z,10.02
2022-11-14T19:13:24.803Z,6.72
2022-11-14T19:16:10.424Z,8.88
2022-11-14T19:18:56.202Z,12.73
2022-11-14T19:21:41.686Z,12.35
2022-11-14T19:24:26.814Z,10.07
2022-11-14T19:27:16.021Z,10.50
2022-11-14T19:30:01.162Z,13.73
2022-11-14T19:32:46.721Z,15.98
2022-11-14T19:35:31.940Z,14.38
2022-11-14T19:38:17.335Z,15.07
2022-11-14T19:41:07.805Z,20.27
2022-11-14T19:43:57.711Z,12.95
2022-11-14T19:46:47.185Z,21.15
2022-11-14T19:49:33.406Z,21.83
2022-11-14T19:52:18.801Z,20.67
2022-11-14T19:55:04.109Z,25.38
2022-11-14T19:57:49.527Z,20.27
2022-11-14T20:00:34.789Z,21.50
2022-11-14T20:03:20.119Z,22.17
2022-11-14T20:06:17.672Z,23.08
2022-11-14T20:09:06.411Z,22.40
2022-11-14T20:11:51.851Z,21.38
2022-11-14T20:14:37.230Z,18.25
2022-11-14T20:17:22.640Z,21.15
2022-11-14T20:20:08.487Z,18.95
2022-11-14T20:22:53.820Z,14.77
2022-11-14T20:25:40.277Z,19.42
2022-11-14T20:28:25.596Z,19.55
2022-11-14T20:31:16.405Z,19.55
2022-11-14T20:34:01.791Z,22.42
2022-11-14T20:37:09.964Z,17.40
2022-11-14T20:39:52.500Z,21.10
2022-11-14T20:42:37.807Z,20.95
2022-11-14T20:45:23.692Z,24.98
2022-11-14T20:48:08.974Z,24.23
2022-11-14T20:51:05.520Z,25.10
2022-11-14T20:53:52.849Z,20.55
2022-11-14T20:56:38.285Z,20.50
2022-11-14T20:59:23.694Z,21.25
2022-11-14T21:02:12.483Z,23.15
2022-11-14T21:04:57.654Z,24.20
2022-11-14T21:07:43.129Z,21.52
2022-11-14T21:14:55.747Z,16.05
2022-11-14T21:17:41.248Z,16.40
2022-11-14T21:20:26.613Z,15.55
2022-11-14T21:23:12.163Z,18.13
2022-11-14T21:26:01.736Z,14.68
2022-11-14T21:28:50.362Z,12.50
2022-11-14T21:31:38.992Z,14.57
2022-11-14T21:34:24.360Z,15.07
2022-11-14T21:37:09.791Z,13.27
2022-11-14T21:39:55.218Z,14.88
2022-11-14T21:42:41.935Z,13.90
2022-11-14T21:45:26.960Z,13.50
2022-11-14T21:48:12.303Z,14.10
2022-11-14T21:51:05.838Z,16.33
2022-11-14T21:53:55.256Z,15.50
2022-11-14T21:56:40.555Z,13.82
2022-11-14T21:59:28.067Z,11.23
2022-11-14T22:02:31.913Z,12.75
2022-11-14T22:05:17.199Z,16.95
2022-11-14T22:08:02.716Z,16.40
2022-11-14T22:10:48.128Z,17.15
2022-11-14T22:13:33.908Z,16.70
2022-11-14T22:16:19.642Z,12.48
2022-11-14T22:19:05.885Z,14.85
2022-11-14T22:21:51.581Z,13.05
2022-11-14T22:24:37.003Z,12.13
2022-11-14T22:27:22.396Z,9.00
2022-11-14T22:30:08.473Z,8.18
2022-11-14T22:32:53.878Z,9.23
2022-11-14T22:35:39.368Z,7.47
2022-11-14T22:38:24.764Z,7.93
2022-11-14T22:41:13.544Z,7.03
2022-11-14T22:43:59.524Z,7.35
2022-11-14T22:46:44.984Z,9.02
2022-11-14T22:49:30.063Z,7.10
2022-11-14T22:52:15.455Z,6.13
2022-11-14T22:55:00.811Z,5.20
2022-11-14T22:57:46.233Z,5.93
2022-11-14T23:00:31.630Z,7.93
2022-11-14T23:03:21.250Z,10.02
2022-11-14T23:06:11.857Z,3.30
2022-11-14T23:08:57.919Z,5.25
2022-11-14T23:11:43.573Z,4.35
2022-11-14T23:14:28.988Z,4.40
2022-11-14T23:17:14.416Z,5.10
2022-11-14T23:19:59.687Z,5.80
2022-11-14T23:22:45.716Z,5.97
2022-11-14T23:25:31.428Z,8.88
2022-11-14T23:28:16.749Z,4.32
2022-11-14T23:31:02.542Z,8.50
2022-11-14T23:33:48.590Z,3.55
2022-11-14T23:36:33.756Z,5.80
2022-11-14T23:39:19.270Z,3.53
2022-11-14T23:42:04.776Z,6.50
2022-11-14T23:44:50.324Z,4.63
2022-11-14T23:47:35.619Z,5.03
2022-11-14T23:50:21.071Z,7.35
2022-11-14T23:53:06.407Z,7.25
2022-11-14T23:55:56.767Z,12.30
2022-11-14T23:58:42.496Z,10.82
